createdAt,value
2019-01-26T00:01:08.824Z,93535.07
2019-01-26T00:03:40.623Z,93549.11
2019-01-26T00:06:12.164Z,93549.33
2019-01-26T00:08:44.753Z,93566.06
2019-01-26T00:11:16.372Z,93561.42
2019-01-26T00:13:47.829Z,93568.61
2019-01-26T00:16:21.162Z,93554.82
2019-01-26T00:18:52.909Z,93560.49
2019-01-26T00:21:24.611Z,93560.49
2019-01-26T00:23:56.008Z,93561.89
2019-01-26T00:26:27.565Z,93570.70
2019-01-26T00:28:59.223Z,93567.55
2019-01-26T00:31:30.923Z,93554.34
2019-01-26T00:34:02.311Z,93551.55
2019-01-26T00:36:33.727Z,93557.72
2019-01-26T00:39:07.403Z,93564.45
2019-01-26T00:41:39.115Z,93570.84
2019-01-26T00:44:10.721Z,93573.12
2019-01-26T00:46:42.455Z,93566.05
2019-01-26T00:49:13.936Z,93575.19
2019-01-26T00:51:45.284Z,93574.16
2019-01-26T00:54:16.934Z,93584.51
2019-01-26T00:56:48.623Z,93590.44
2019-01-26T00:59:19.940Z,93578.69
2019-01-26T01:01:51.465Z,93568.33
2019-01-26T01:04:23.250Z,93571.95
2019-01-26T01:06:54.798Z,93573.68
2019-01-26T01:09:26.050Z,93580.44
2019-01-26T01:11:57.787Z,93579.63
2019-01-26T01:14:29.371Z,93575.30
2019-01-26T01:17:00.967Z,93582.02
2019-01-26T01:19:32.617Z,93582.59
2019-01-26T01:22:04.039Z,93584.69
2019-01-26T01:24:35.382Z,93589.19
2019-01-26T01:27:06.892Z,93593.70
2019-01-26T01:29:38.113Z,93586.94
2019-01-26T01:32:09.718Z,93583.59
2019-01-26T01:34:41.004Z,93583.11
2019-01-26T01:37:12.543Z,93586.28
2019-01-26T01:39:43.781Z,93594.08
2019-01-26T01:42:15.112Z,93593.13
2019-01-26T01:44:46.708Z,93592.53
2019-01-26T01:47:18.102Z,93593.03
2019-01-26T01:49:49.713Z,93595.56
2019-01-26T01:52:21.169Z,93590.59
2019-01-26T01:54:52.542Z,93591.77
2019-01-26T01:57:24.094Z,93585.04
2019-01-26T01:59:55.848Z,93580.73
2019-01-26T02:02:27.279Z,93586.52
2019-01-26T02:04:58.700Z,93582.00
2019-01-26T02:07:30.008Z,93585.59
2019-01-26T02:10:01.490Z,93584.55
2019-01-26T02:12:32.989Z,93586.62
2019-01-26T02:15:04.789Z,93584.00
2019-01-26T02:17:36.320Z,93588.05
2019-01-26T02:20:09.668Z,93600.20
2019-01-26T02:22:41.262Z,93599.65
2019-01-26T02:25:13.540Z,93607.44
2019-01-26T02:27:45.279Z,93607.19
2019-01-26T02:30:19.569Z,93601.72
2019-01-26T02:32:50.931Z,93601.72
2019-01-26T02:35:22.559Z,93604.00
2019-01-26T02:37:53.935Z,93605.91
2019-01-26T02:40:25.558Z,93605.33
2019-01-26T02:42:57.266Z,93606.17
2019-01-26T02:45:28.772Z,93611.64
2019-01-26T02:48:00.167Z,93606.73
2019-01-26T02:50:31.739Z,93612.31
2019-01-26T02:53:02.933Z,93609.67
2019-01-26T02:55:34.364Z,93615.81
2019-01-26T02:58:05.660Z,93619.64
2019-01-26T03:00:37.116Z,93617.45
2019-01-26T03:03:08.500Z,93615.09
2019-01-26T03:05:40.415Z,93617.19
2019-01-26T03:08:11.871Z,93617.09
2019-01-26T03:10:44.386Z,93625.44
2019-01-26T03:13:16.046Z,93625.34
2019-01-26T03:15:47.699Z,93637.33
2019-01-26T03:18:18.984Z,93636.27
2019-01-26T03:20:50.531Z,93634.38
2019-01-26T03:23:22.134Z,93636.23
2019-01-26T03:25:53.729Z,93638.34
2019-01-26T03:28:25.156Z,93648.33
2019-01-26T03:30:56.491Z,93650.91
2019-01-26T03:33:27.908Z,93658.63
2019-01-26T03:35:59.360Z,93663.70
2019-01-26T03:38:30.973Z,93653.30
2019-01-26T03:41:02.199Z,93659.82
2019-01-26T03:43:33.529Z,93659.23
2019-01-26T03:46:05.287Z,93661.30
2019-01-26T03:48:36.920Z,93660.73
2019-01-26T03:51:08.313Z,93665.44
2019-01-26T03:53:39.951Z,93660.15
2019-01-26T03:56:11.387Z,93667.06
2019-01-26T03:58:43.063Z,93667.67
2019-01-26T04:01:14.711Z,93667.64
2019-01-26T04:03:46.427Z,93671.97
2019-01-26T04:06:17.902Z,93671.52
2019-01-26T04:08:49.453Z,93676.75
2019-01-26T04:11:21.021Z,93677.30
2019-01-26T04:13:52.372Z,93683.77
2019-01-26T04:16:23.993Z,93680.34
2019-01-26T04:18:55.563Z,93678.46
2019-01-26T04:21:27.219Z,93677.19
2019-01-26T04:23:58.845Z,93678.46
2019-01-26T04:26:30.275Z,93689.92
2019-01-26T04:29:01.834Z,93682.61
2019-01-26T04:31:33.094Z,93689.41
2019-01-26T04:34:04.411Z,93692.19
2019-01-26T04:36:35.868Z,93701.45
2019-01-26T04:39:09.304Z,93699.73
2019-01-26T04:41:40.755Z,93703.18
2019-01-26T04:44:12.339Z,93694.55
2019-01-26T04:46:44.000Z,93702.36
2019-01-26T04:49:15.511Z,93702.66
2019-01-26T04:51:47.187Z,93698.02
2019-01-26T04:54:18.642Z,93718.27
2019-01-26T04:56:50.317Z,93725.69
2019-01-26T04:59:21.960Z,93725.97
2019-01-26T05:01:53.483Z,93728.97
2019-01-26T05:04:24.953Z,93729.63
2019-01-26T05:06:56.275Z,93734.86
2019-01-26T05:09:27.862Z,93738.45
2019-01-26T05:11:59.067Z,93743.64
2019-01-26T05:14:30.531Z,93747.33
2019-01-26T05:17:02.100Z,93749.02
2019-01-26T05:19:33.328Z,93754.89
2019-01-26T05:22:04.796Z,93753.34
2019-01-26T05:24:36.292Z,93759.95
2019-01-26T05:27:07.501Z,93763.63
2019-01-26T05:29:39.108Z,93763.63
2019-01-26T05:32:10.582Z,93758.26
2019-01-26T05:34:42.066Z,93764.14
2019-01-26T05:37:13.379Z,93774.95
2019-01-26T05:39:44.843Z,93775.77
2019-01-26T05:42:16.363Z,93777.31
2019-01-26T05:44:47.547Z,93782.96
2019-01-26T05:47:18.856Z,93786.09
2019-01-26T05:49:50.297Z,93790.46
2019-01-26T05:52:21.591Z,93789.14
2019-01-26T05:54:53.047Z,93796.15
2019-01-26T05:57:24.713Z,93803.41
2019-01-26T05:59:56.132Z,93817.49
2019-01-26T06:02:27.889Z,93815.09
2019-01-26T06:04:59.461Z,93820.39
2019-01-26T06:07:31.139Z,93831.64
2019-01-26T06:10:02.774Z,93835.42
2019-01-26T06:12:34.262Z,93834.13
2019-01-26T06:15:06.637Z,93836.34
2019-01-26T06:17:38.403Z,93842.66
2019-01-26T06:20:10.521Z,93846.99
2019-01-26T06:22:42.213Z,93843.38
2019-01-26T06:25:14.634Z,93848.70
2019-01-26T06:27:47.262Z,93850.69
2019-01-26T06:30:20.714Z,93848.38
2019-01-26T06:32:52.204Z,93850.63
2019-01-26T06:35:23.863Z,93851.94
2019-01-26T06:37:55.492Z,93852.87
2019-01-26T06:40:27.133Z,93856.34
2019-01-26T06:42:58.386Z,93873.59
2019-01-26T06:45:29.882Z,93876.82
2019-01-26T06:48:02.274Z,93873.53
2019-01-26T06:50:34.336Z,93871.84
2019-01-26T06:53:06.344Z,93877.11
2019-01-26T06:55:38.513Z,93875.18
2019-01-26T06:58:10.062Z,93871.72
2019-01-26T07:00:41.601Z,93874.81
2019-01-26T07:03:12.946Z,93884.41
2019-01-26T07:05:52.022Z,93874.72
2019-01-26T07:08:24.257Z,93881.09
2019-01-26T07:10:55.909Z,93879.67
2019-01-26T07:13:27.403Z,93886.13
2019-01-26T07:16:00.833Z,93899.16
2019-01-26T07:18:32.638Z,93887.52
2019-01-26T07:21:04.318Z,93893.59
2019-01-26T07:23:35.930Z,93896.72
2019-01-26T07:26:07.378Z,93890.80
2019-01-26T07:28:38.889Z,93890.89
2019-01-26T07:31:10.541Z,93883.63
2019-01-26T07:33:41.977Z,93885.34
2019-01-26T07:36:13.478Z,93891.29
2019-01-26T07:38:44.796Z,93887.57
2019-01-26T07:41:16.349Z,93885.64
2019-01-26T07:43:47.742Z,93905.48
2019-01-26T07:46:19.387Z,93905.16
2019-01-26T07:48:50.845Z,93912.00
2019-01-26T07:51:22.147Z,93910.99
2019-01-26T07:53:54.358Z,93915.05
2019-01-26T07:56:26.294Z,93917.31
2019-01-26T07:58:57.507Z,93918.24
2019-01-26T08:01:29.577Z,93918.84
2019-01-26T08:04:01.317Z,93915.42
2019-01-26T08:06:33.035Z,93925.44
2019-01-26T08:09:06.283Z,93917.94
2019-01-26T08:11:38.623Z,93923.29
2019-01-26T08:14:11.098Z,93926.25
2019-01-26T08:16:42.763Z,93924.78
2019-01-26T08:19:14.318Z,93915.39
2019-01-26T08:21:45.993Z,93927.85
2019-01-26T08:24:17.704Z,93935.05
2019-01-26T08:26:49.205Z,93944.11
2019-01-26T08:29:20.905Z,93939.63
2019-01-26T08:31:52.543Z,93940.09
2019-01-26T08:34:23.879Z,93942.19
2019-01-26T08:36:55.218Z,93952.97
2019-01-26T08:39:26.698Z,93951.82
2019-01-26T08:41:58.090Z,93947.70
2019-01-26T08:44:29.607Z,93947.91
2019-01-26T08:47:01.170Z,93956.49
2019-01-26T08:49:32.705Z,93952.09
2019-01-26T08:52:03.925Z,93967.34
2019-01-26T08:54:35.375Z,93965.42
2019-01-26T08:57:07.103Z,93971.05
2019-01-26T08:59:38.418Z,93970.02
2019-01-26T09:02:29.843Z,93967.08
2019-01-26T09:05:01.598Z,93968.68
2019-01-26T09:07:33.009Z,93977.56
2019-01-26T09:10:04.586Z,93978.20
2019-01-26T09:12:35.926Z,93974.94
2019-01-26T09:15:09.186Z,93978.38
2019-01-26T09:17:40.660Z,93982.71
2019-01-26T09:20:12.242Z,93978.67
2019-01-26T09:22:45.442Z,93986.79
2019-01-26T09:25:16.748Z,93988.69
2019-01-26T09:27:48.544Z,93985.84
2019-01-26T09:30:20.269Z,93991.47
2019-01-26T09:32:51.947Z,93988.80
2019-01-26T09:35:23.538Z,93989.51
2019-01-26T09:37:55.235Z,93988.39
2019-01-26T09:40:26.773Z,93994.48
2019-01-26T09:42:58.222Z,93991.41
2019-01-26T09:45:29.585Z,93989.45
2019-01-26T09:48:00.937Z,93984.50
2019-01-26T09:50:32.272Z,93984.52
2019-01-26T09:53:03.699Z,93983.07
2019-01-26T09:55:35.066Z,93985.13
2019-01-26T09:58:06.557Z,93992.88
2019-01-26T10:00:38.264Z,93990.32
2019-01-26T10:03:09.822Z,93995.55
2019-01-26T10:05:41.529Z,93991.75
2019-01-26T10:08:13.012Z,93984.56
2019-01-26T10:10:44.886Z,93981.46
2019-01-26T10:13:16.612Z,93988.44
2019-01-26T10:15:48.066Z,93989.48
2019-01-26T10:18:19.930Z,93991.68
2019-01-26T10:20:51.147Z,93991.33
2019-01-26T10:23:22.771Z,93989.55
2019-01-26T10:25:54.414Z,94003.27
2019-01-26T10:28:26.012Z,94006.02
2019-01-26T10:31:00.908Z,94004.34
2019-01-26T10:33:32.596Z,94000.89
2019-01-26T10:36:23.011Z,93996.83
2019-01-26T10:39:00.566Z,94003.11
2019-01-26T10:41:58.227Z,94003.69
2019-01-26T10:44:31.131Z,94004.16
2019-01-26T10:47:02.578Z,94000.81
2019-01-26T10:49:34.173Z,93997.91
2019-01-26T10:52:06.065Z,94007.88
2019-01-26T10:54:37.591Z,93996.78
2019-01-26T10:57:09.094Z,93997.08
2019-01-26T10:59:40.548Z,93999.49
2019-01-26T11:02:12.277Z,93997.28
2019-01-26T11:04:43.702Z,93993.02
2019-01-26T11:07:15.890Z,93976.23
2019-01-26T11:09:47.739Z,93991.70
2019-01-26T11:12:19.130Z,93993.33
2019-01-26T11:14:50.376Z,93991.25
2019-01-26T11:17:23.216Z,93991.68
2019-01-26T11:19:55.005Z,93988.42
2019-01-26T11:22:26.324Z,93993.04
2019-01-26T11:24:57.770Z,93986.64
2019-01-26T11:27:29.177Z,93982.94
2019-01-26T11:30:00.544Z,93979.98
2019-01-26T11:32:31.842Z,93977.89
2019-01-26T11:35:03.248Z,93977.13
2019-01-26T11:37:34.729Z,93984.24
2019-01-26T11:40:19.688Z,93982.42
2019-01-26T11:42:51.175Z,93986.02
2019-01-26T11:45:56.341Z,93990.33
2019-01-26T11:48:31.998Z,93987.23
2019-01-26T11:51:16.582Z,93996.05
2019-01-26T11:53:48.535Z,93996.05
2019-01-26T11:56:27.690Z,93993.03
2019-01-26T11:58:59.224Z,93995.16
2019-01-26T12:01:55.846Z,93992.96
2019-01-26T12:04:44.912Z,93989.52
2019-01-26T12:07:19.108Z,94000.05
2019-01-26T12:09:50.816Z,93997.49
2019-01-26T12:12:22.155Z,93994.94
2019-01-26T12:14:53.503Z,93993.42
2019-01-26T12:17:24.862Z,93998.22
2019-01-26T12:19:56.090Z,94002.48
2019-01-26T12:22:27.721Z,93996.80
2019-01-26T12:24:59.074Z,94000.70
2019-01-26T12:27:30.648Z,94005.47
2019-01-26T12:30:02.244Z,93995.85
2019-01-26T12:32:33.487Z,94008.80
2019-01-26T12:35:05.721Z,94011.81
2019-01-26T12:37:36.948Z,94009.57
2019-01-26T12:40:09.212Z,93989.75
2019-01-26T12:42:40.620Z,93995.52
2019-01-26T12:45:15.178Z,94002.25
2019-01-26T12:47:46.402Z,94000.20
2019-01-26T12:50:17.992Z,94001.41
2019-01-26T12:52:49.716Z,94010.96
2019-01-26T12:55:21.358Z,94015.73
2019-01-26T12:57:52.843Z,94012.41
2019-01-26T13:00:24.325Z,94012.44
2019-01-26T13:02:55.878Z,94007.02
2019-01-26T13:05:27.401Z,94012.95
2019-01-26T13:07:59.163Z,94016.73
2019-01-26T13:10:34.099Z,94018.09
2019-01-26T13:13:07.010Z,94019.91
2019-01-26T13:15:39.505Z,94020.66
2019-01-26T13:18:11.157Z,94023.36
2019-01-26T13:20:42.769Z,94022.28
2019-01-26T13:23:14.648Z,94023.98
2019-01-26T13:25:46.167Z,94027.36
2019-01-26T13:28:17.995Z,94038.05
2019-01-26T13:30:49.374Z,94031.42
2019-01-26T13:33:20.977Z,94038.13
2019-01-26T13:35:52.532Z,94041.19
2019-01-26T13:38:23.931Z,94029.05
2019-01-26T13:40:55.352Z,94045.48
2019-01-26T13:43:27.179Z,94050.05
2019-01-26T13:45:58.941Z,94046.45
2019-01-26T13:48:30.742Z,94051.52
2019-01-26T13:51:02.436Z,94052.95
2019-01-26T13:53:33.777Z,94052.64
2019-01-26T13:56:05.551Z,94055.09
2019-01-26T13:58:37.412Z,94056.08
2019-01-26T14:01:08.972Z,94057.36
2019-01-26T14:03:40.559Z,94062.87
2019-01-26T14:06:12.094Z,94069.50
2019-01-26T14:08:43.641Z,94061.98
2019-01-26T14:11:15.036Z,94063.37
2019-01-26T14:13:47.287Z,94071.97
2019-01-26T14:16:18.735Z,94079.59
2019-01-26T14:18:50.329Z,94079.64
2019-01-26T14:21:21.901Z,94082.09
2019-01-26T14:23:54.589Z,94070.13
2019-01-26T14:26:26.121Z,94079.95
2019-01-26T14:28:57.816Z,94087.27
2019-01-26T14:31:29.338Z,94090.47
2019-01-26T14:34:00.652Z,94089.94
2019-01-26T14:36:32.042Z,94094.04
2019-01-26T14:39:05.443Z,94093.45
2019-01-26T14:41:37.101Z,94098.42
2019-01-26T14:44:08.823Z,94104.23
2019-01-26T14:46:40.635Z,94104.27
2019-01-26T14:49:12.277Z,94113.52
2019-01-26T14:51:43.571Z,94108.66
2019-01-26T14:54:15.071Z,94101.55
2019-01-26T14:56:46.783Z,94104.73
2019-01-26T14:59:17.982Z,94117.06
2019-01-26T15:01:49.280Z,94114.89
2019-01-26T15:04:20.962Z,94119.36
2019-01-26T15:06:52.667Z,94115.75
2019-01-26T15:09:24.354Z,94119.72
2019-01-26T15:11:56.397Z,94122.03
2019-01-26T15:14:29.190Z,94125.51
2019-01-26T15:17:00.788Z,94135.59
2019-01-26T15:19:32.435Z,94133.00
2019-01-26T15:22:04.064Z,94123.26
2019-01-26T15:24:35.781Z,94127.75
2019-01-26T15:27:07.791Z,94132.78
2019-01-26T15:29:39.882Z,94142.57
2019-01-26T15:32:11.603Z,94149.71
2019-01-26T15:34:43.017Z,94152.54
2019-01-26T15:37:14.998Z,94152.52
2019-01-26T15:39:46.956Z,94157.63
2019-01-26T15:42:18.448Z,94162.65
2019-01-26T15:44:49.960Z,94162.36
2019-01-26T15:47:21.180Z,94159.27
2019-01-26T15:49:52.736Z,94164.65
2019-01-26T15:52:24.378Z,94169.51
2019-01-26T15:54:55.616Z,94167.88
2019-01-26T15:57:27.424Z,94163.02
2019-01-26T15:59:59.086Z,94168.22
2019-01-26T16:02:30.367Z,94176.68
2019-01-26T16:05:02.039Z,94181.06
2019-01-26T16:07:33.496Z,94181.88
2019-01-26T16:10:05.340Z,94179.79
2019-01-26T16:12:36.757Z,94184.16
2019-01-26T16:15:10.823Z,94185.36
2019-01-26T16:17:43.078Z,94188.34
2019-01-26T16:20:20.241Z,94187.98
2019-01-26T16:22:49.193Z,94184.16
2019-01-26T16:25:20.517Z,94188.53
2019-01-26T16:27:51.998Z,94194.55
2019-01-26T16:30:26.165Z,94202.45
2019-01-26T16:32:57.711Z,94212.21
2019-01-26T16:35:29.577Z,94208.58
2019-01-26T16:38:01.129Z,94212.59
2019-01-26T16:40:34.100Z,94213.66
2019-01-26T16:43:06.770Z,94215.23
2019-01-26T16:45:39.956Z,94220.03
2019-01-26T16:48:13.667Z,94214.76
2019-01-26T16:50:45.120Z,94229.33
2019-01-26T16:53:17.117Z,94228.77
2019-01-26T16:55:48.861Z,94223.05
2019-01-26T16:58:20.204Z,94224.77
2019-01-26T17:00:54.018Z,94222.97
2019-01-26T17:03:25.567Z,94218.05
2019-01-26T17:05:57.326Z,94219.12
2019-01-26T17:08:28.893Z,94225.41
2019-01-26T17:11:00.095Z,94224.33
2019-01-26T17:13:31.356Z,94221.50
2019-01-26T17:16:03.415Z,94227.42
2019-01-26T17:18:34.963Z,94232.78
2019-01-26T17:21:06.727Z,94236.98
2019-01-26T17:23:38.606Z,94239.17
2019-01-26T17:26:10.124Z,94244.63
2019-01-26T17:28:41.769Z,94243.98
2019-01-26T17:31:13.224Z,94237.17
2019-01-26T17:33:44.909Z,94245.55
2019-01-26T17:36:16.372Z,94247.02
2019-01-26T17:38:47.890Z,94250.09
2019-01-26T17:41:19.322Z,94253.10
2019-01-26T17:43:50.821Z,94253.83
2019-01-26T17:46:22.474Z,94251.64
2019-01-26T17:48:54.113Z,94250.27
2019-01-26T17:51:25.354Z,94257.66
2019-01-26T17:53:56.894Z,94269.48
2019-01-26T17:56:28.591Z,94267.20
2019-01-26T17:59:00.015Z,94277.75
2019-01-26T18:01:31.652Z,94268.47
2019-01-26T18:04:03.454Z,94273.38
2019-01-26T18:06:35.174Z,94274.34
2019-01-26T18:09:09.293Z,94279.28
2019-01-26T18:11:41.266Z,94276.73
2019-01-26T18:14:12.636Z,94275.36
2019-01-26T18:16:44.230Z,94274.80
2019-01-26T18:19:15.589Z,94282.44
2019-01-26T18:21:47.115Z,94283.92
2019-01-26T18:24:18.808Z,94273.38
2019-01-26T18:26:50.853Z,94273.57
2019-01-26T18:29:22.623Z,94272.81
2019-01-26T18:31:54.056Z,94270.11
2019-01-26T18:34:25.268Z,94270.36
2019-01-26T18:36:56.898Z,94268.92
2019-01-26T18:39:28.248Z,94270.92
2019-01-26T18:41:59.562Z,94260.13
2019-01-26T18:44:30.736Z,94261.86
2019-01-26T18:47:02.263Z,94255.22
2019-01-26T18:49:33.868Z,94262.67
2019-01-26T18:52:05.340Z,94258.34
2019-01-26T18:54:36.572Z,94258.44
2019-01-26T18:57:08.017Z,94261.28
2019-01-26T18:59:39.369Z,94263.27
2019-01-26T19:02:10.993Z,94267.36
2019-01-26T19:04:49.697Z,94253.34
2019-01-26T19:07:21.262Z,94255.89
2019-01-26T19:09:52.929Z,94249.52
2019-01-26T19:12:24.658Z,94246.44
2019-01-26T19:14:56.438Z,94250.72
2019-01-26T19:17:28.203Z,94245.82
2019-01-26T19:19:59.795Z,94243.72
2019-01-26T19:22:31.190Z,94243.82
2019-01-26T19:25:02.758Z,94236.59
2019-01-26T19:27:34.099Z,94226.41
2019-01-26T19:30:06.561Z,94231.97
2019-01-26T19:32:38.067Z,94234.25
2019-01-26T19:35:09.958Z,94230.06
2019-01-26T19:37:41.163Z,94219.95
2019-01-26T19:40:20.276Z,94224.77
2019-01-26T19:42:53.573Z,94222.04
2019-01-26T19:45:25.786Z,94218.41
2019-01-26T19:47:57.142Z,94224.77
2019-01-26T19:50:28.623Z,94219.86
2019-01-26T19:52:59.899Z,94215.58
2019-01-26T19:55:31.431Z,94212.75
2019-01-26T19:58:02.732Z,94212.94
2019-01-26T20:00:36.376Z,94212.19
2019-01-26T20:03:08.317Z,94213.39
2019-01-26T20:05:39.771Z,94206.77
2019-01-26T20:08:11.324Z,94209.48
2019-01-26T20:10:42.761Z,94213.30
2019-01-26T20:13:14.205Z,94213.38
2019-01-26T20:15:45.527Z,94214.22
2019-01-26T20:18:17.180Z,94217.30
2019-01-26T20:20:48.817Z,94214.55
2019-01-26T20:23:20.225Z,94217.66
2019-01-26T20:25:51.795Z,94209.72
2019-01-26T20:28:23.238Z,94208.80
2019-01-26T20:30:54.551Z,94208.91
2019-01-26T20:33:26.001Z,94206.16
2019-01-26T20:35:57.988Z,94199.83
2019-01-26T20:38:29.547Z,94204.36
2019-01-26T20:41:00.745Z,94198.88
2019-01-26T20:43:31.960Z,94204.48
2019-01-26T20:46:04.214Z,94204.03
2019-01-26T20:48:35.678Z,94204.59
2019-01-26T20:51:07.044Z,94209.02
2019-01-26T20:53:38.598Z,94213.75
2019-01-26T20:56:09.982Z,94215.83
2019-01-26T20:58:41.262Z,94220.56
2019-01-26T21:01:12.621Z,94218.68
2019-01-26T21:03:44.078Z,94221.53
2019-01-26T21:06:16.664Z,94221.39
2019-01-26T21:08:48.946Z,94232.64
2019-01-26T21:11:20.742Z,94237.38
2019-01-26T21:13:52.419Z,94238.53
2019-01-26T21:16:24.871Z,94232.98
2019-01-26T21:18:56.289Z,94220.09
2019-01-26T21:21:31.968Z,94234.38
2019-01-26T21:24:00.995Z,94226.27
2019-01-26T21:26:32.429Z,94222.00
2019-01-26T21:29:03.777Z,94225.11
2019-01-26T21:31:35.480Z,94226.32
2019-01-26T21:34:07.072Z,94216.63
2019-01-26T21:36:38.729Z,94232.13
2019-01-26T21:39:10.595Z,94227.80
2019-01-26T21:41:42.466Z,94231.17
2019-01-26T21:44:14.147Z,94235.97
2019-01-26T21:46:45.683Z,94236.33
2019-01-26T21:49:17.164Z,94240.80
2019-01-26T21:51:48.745Z,94250.66
2019-01-26T21:54:20.049Z,94251.96
2019-01-26T21:56:51.381Z,94248.81
2019-01-26T21:59:23.032Z,94248.56
2019-01-26T22:01:54.350Z,94253.76
2019-01-26T22:04:25.845Z,94248.39
2019-01-26T22:06:57.261Z,94251.66
2019-01-26T22:09:28.533Z,94259.66
2019-01-26T22:12:00.213Z,94258.33
2019-01-26T22:14:31.564Z,94248.70
2019-01-26T22:17:03.057Z,94255.59
2019-01-26T22:19:34.970Z,94260.32
2019-01-26T22:22:07.015Z,94256.80
2019-01-26T22:24:38.721Z,94256.61
2019-01-26T22:27:10.055Z,94257.52
2019-01-26T22:29:41.546Z,94250.07
2019-01-26T22:32:13.226Z,94251.14
2019-01-26T22:34:45.068Z,94255.53
2019-01-26T22:37:16.487Z,94260.13
2019-01-26T22:39:47.763Z,94264.23
2019-01-26T22:42:19.147Z,94266.44
2019-01-26T22:44:50.340Z,94264.04
2019-01-26T22:47:21.727Z,94266.03
2019-01-26T22:49:53.355Z,94273.67
2019-01-26T22:52:24.604Z,94265.07
2019-01-26T22:54:56.042Z,94263.13
2019-01-26T22:57:27.500Z,94258.03
2019-01-26T22:59:58.946Z,94268.22
2019-01-26T23:02:30.635Z,94270.32
2019-01-26T23:05:57.715Z,94275.70
2019-01-26T23:08:30.955Z,94273.33
2019-01-26T23:11:24.657Z,94273.98
2019-01-26T23:14:44.263Z,94280.55
2019-01-26T23:17:40.158Z,94289.22
2019-01-26T23:20:40.607Z,94290.86
2019-01-26T23:23:36.809Z,94290.14
2019-01-26T23:26:17.325Z,94294.42
2019-01-26T23:29:11.450Z,94301.61
2019-01-26T23:31:42.875Z,94291.61
2019-01-26T23:34:14.738Z,94300.14
2019-01-26T23:36:46.091Z,94304.92
2019-01-26T23:39:17.615Z,94298.05
2019-01-26T23:41:49.141Z,94299.16
2019-01-26T23:44:20.319Z,94288.15
2019-01-26T23:46:51.569Z,94286.97
2019-01-26T23:49:22.960Z,94283.08
2019-01-26T23:51:54.570Z,94289.16
2019-01-26T23:54:26.090Z,94296.35
2019-01-26T23:56:57.696Z,94294.00
2019-01-26T23:59:29.167Z,94295.89
